Time;durP1;ratioP1;P1;durP2;ratioP2;P2;SDS_P1;SDS_P2;PMS_P1;PMS_P2;Temp;Humidity;BMP_temperature;BMP_pressure;BME280_temperature;BME280_humidity;BME280_pressure;Samples;Min_cycle;Max_cycle;Signal;HPM_P1;HPM_P2
2022/05/07 00:03:47;;;;;;;8.77;7.97;;;13.40;99.90;;;;;;10470398;28;20403;-83
2022/05/07 00:08:49;;;;;;;11.20;10.20;;;13.40;99.90;;;;;;10480421;28;20239;-84
2022/05/07 00:13:52;;;;;;;10.47;9.47;;;13.30;99.90;;;;;;10480213;28;20324;-84
2022/05/07 00:18:55;;;;;;;11.43;10.43;;;13.20;99.90;;;;;;10461451;28;20269;-84
2022/05/07 00:23:58;;;;;;;10.20;9.40;;;13.20;99.90;;;;;;10470485;28;20626;-85
2022/05/07 00:29:00;;;;;;;11.30;8.17;;;13.10;99.90;;;;;;10470692;28;20220;-85
2022/05/07 00:34:05;;;;;;;7.80;7.07;;;13.10;99.90;;;;;;10492827;28;20773;-84
2022/05/07 00:39:07;;;;;;;9.03;7.50;;;13.00;99.90;;;;;;10477277;28;20237;-84
2022/05/07 00:44:10;;;;;;;7.23;6.63;;;13.00;99.90;;;;;;10482005;28;20189;-84
2022/05/07 00:49:13;;;;;;;8.73;7.87;;;13.00;99.90;;;;;;10472154;28;20225;-86
2022/05/07 00:54:17;;;;;;;8.03;7.33;;;13.00;99.90;;;;;;10461678;28;20270;-84
2022/05/07 00:59:20;;;;;;;9.97;8.97;;;12.90;99.90;;;;;;10445941;28;20596;-86
2022/05/07 01:04:24;;;;;;;9.73;8.43;;;12.90;99.90;;;;;;10449406;28;20219;-85
2022/05/07 01:09:26;;;;;;;9.23;8.20;;;12.80;99.90;;;;;;10459272;28;20231;-83
2022/05/07 01:14:28;;;;;;;8.93;8.13;;;12.80;99.90;;;;;;10468165;28;20323;-84
2022/05/07 01:19:34;;;;;;;9.70;8.80;;;12.80;99.90;;;;;;10466849;28;20250;-84
2022/05/07 01:24:38;;;;;;;10.47;9.37;;;12.70;99.90;;;;;;10485469;28;20188;-83
2022/05/07 01:29:40;;;;;;;11.20;9.47;;;12.70;99.90;;;;;;10469178;28;20217;-84
2022/05/07 01:34:43;;;;;;;8.10;7.50;;;12.70;99.90;;;;;;10469482;28;20220;-83
2022/05/07 01:39:46;;;;;;;10.20;9.30;;;12.70;99.90;;;;;;10485464;28;20256;-84
2022/05/07 01:44:49;;;;;;;11.33;10.27;;;12.70;99.90;;;;;;10482890;28;20200;-83
2022/05/07 01:49:52;;;;;;;10.03;9.07;;;12.60;99.90;;;;;;10489240;28;20552;-82
2022/05/07 01:54:56;;;;;;;8.53;7.83;;;12.60;99.90;;;;;;10461890;28;20221;-83
2022/05/07 01:59:58;;;;;;;10.90;9.80;;;12.50;99.90;;;;;;10462140;28;20294;-83
2022/05/07 02:05:00;;;;;;;9.60;8.70;;;12.50;99.90;;;;;;10475215;28;20255;-83
2022/05/07 02:10:05;;;;;;;12.03;10.80;;;12.50;99.90;;;;;;10454265;28;20232;-83
2022/05/07 02:15:09;;;;;;;12.23;10.93;;;12.50;99.90;;;;;;10461552;28;20225;-83
2022/05/07 02:20:13;;;;;;;14.50;13.10;;;12.50;99.90;;;;;;10477919;28;20561;-82
2022/05/07 02:25:23;;;;;;;14.90;13.50;;;12.40;99.90;;;;;;10429573;28;20206;-83
2022/05/07 02:30:29;;;;;;;18.23;16.50;;;12.40;99.90;;;;;;10469544;28;20739;-83
2022/05/07 02:35:35;;;;;;;13.93;10.63;;;12.30;99.90;;;;;;10453836;28;20216;-82
2022/05/07 02:46:01;;;;;;;9.97;9.17;;;12.30;99.90;;;;;;10455308;28;20216;-84
2022/05/07 02:51:03;;;;;;;11.13;9.63;;;12.20;99.90;;;;;;10460789;28;20200;-84
2022/05/07 02:56:07;;;;;;;8.73;8.13;;;12.20;99.90;;;;;;10458286;28;20727;-83
2022/05/07 03:01:09;;;;;;;8.83;8.03;;;12.20;99.90;;;;;;10455313;28;20668;-84
2022/05/07 03:06:13;;;;;;;9.30;8.50;;;12.10;99.90;;;;;;10465821;28;20304;-82
2022/05/07 03:11:17;;;;;;;10.17;9.37;;;12.10;99.90;;;;;;10478505;28;20200;-83
2022/05/07 03:16:19;;;;;;;10.83;9.83;;;12.10;99.90;;;;;;10455723;28;20231;-84
2022/05/07 03:21:21;;;;;;;11.40;10.37;;;12.10;99.90;;;;;;10478579;28;20223;-84
2022/05/07 03:26:25;;;;;;;11.40;10.40;;;12.00;99.90;;;;;;10463319;28;20271;-83
2022/05/07 03:31:30;;;;;;;10.10;9.30;;;12.00;99.90;;;;;;10495816;28;20196;-83
2022/05/07 03:36:32;;;;;;;10.30;9.50;;;12.00;99.90;;;;;;10461083;28;20234;-83
2022/05/07 03:41:38;;;;;;;10.90;9.80;;;11.90;99.90;;;;;;10456145;28;20208;-83
2022/05/07 03:46:40;;;;;;;11.17;10.07;;;11.90;99.90;;;;;;10462665;28;20212;-83
2022/05/07 03:57:05;;;;;;;11.10;10.00;;;11.90;99.90;;;;;;10474388;28;20224;-83
2022/05/07 04:02:11;;;;;;;10.70;9.80;;;11.80;99.90;;;;;;10465006;28;20211;-83
2022/05/07 04:07:22;;;;;;;11.07;9.97;;;11.80;99.90;;;;;;10479950;28;20244;-83
2022/05/07 04:12:46;;;;;;;11.80;10.60;;;11.80;99.90;;;;;;10464079;28;20223;-83
2022/05/07 04:17:49;;;;;;;11.40;10.27;;;11.80;99.90;;;;;;10468864;28;20982;-83
2022/05/07 04:22:51;;;;;;;11.57;10.53;;;11.80;99.90;;;;;;10503985;28;20192;-83
2022/05/07 04:27:55;;;;;;;13.80;12.40;;;11.90;99.90;;;;;;10468945;28;20220;-82
2022/05/07 04:32:59;;;;;;;14.20;12.70;;;11.90;99.90;;;;;;10457302;28;20211;-82
2022/05/07 04:38:02;;;;;;;14.73;13.13;;;11.80;99.90;;;;;;10462876;28;20225;-82
2022/05/07 04:43:07;;;;;;;12.67;11.37;;;11.90;99.90;;;;;;10472216;28;20192;-82
2022/05/07 04:48:10;;;;;;;12.97;11.73;;;11.90;99.90;;;;;;10466582;28;20224;-82
2022/05/07 04:53:13;;;;;;;12.03;10.67;;;11.90;99.90;;;;;;10463679;28;20220;-82
2022/05/07 04:58:18;;;;;;;13.33;11.93;;;12.00;99.90;;;;;;10471913;28;20228;-83
2022/05/07 05:03:22;;;;;;;12.73;11.43;;;12.00;99.90;;;;;;10491149;28;20200;-82
2022/05/07 05:08:35;;;;;;;17.33;13.40;;;12.00;99.90;;;;;;10468523;28;20228;-82
2022/05/07 05:13:38;;;;;;;10.83;9.83;;;12.00;99.90;;;;;;10507093;28;20213;-81
2022/05/07 05:18:41;;;;;;;11.10;9.30;;;12.00;99.90;;;;;;10499529;28;20220;-82
2022/05/07 05:23:46;;;;;;;12.03;10.83;;;12.10;99.90;;;;;;10472791;28;20197;-83
2022/05/07 05:28:51;;;;;;;9.17;8.50;;;12.10;99.90;;;;;;10488079;28;20228;-83
2022/05/07 05:33:55;;;;;;;10.67;9.77;;;12.20;99.90;;;;;;10465848;28;20231;-82
2022/05/07 05:39:07;;;;;;;10.20;9.40;;;12.30;99.90;;;;;;10463413;28;20232;-83
2022/05/07 05:44:12;;;;;;;11.30;10.30;;;12.40;99.90;;;;;;10444069;28;20288;-85
2022/05/07 05:49:14;;;;;;;10.90;9.97;;;12.40;99.90;;;;;;10479535;28;20224;-83
2022/05/07 05:54:19;;;;;;;11.37;10.33;;;12.50;99.90;;;;;;10491041;28;20216;-83
2022/05/07 05:59:23;;;;;;;14.60;13.20;;;12.50;99.90;;;;;;10511388;28;20570;-82
2022/05/07 06:04:32;;;;;;;12.60;11.30;;;12.60;99.90;;;;;;10498440;28;20195;-82
2022/05/07 06:09:40;;;;;;;12.77;11.47;;;12.70;99.90;;;;;;10480487;28;20321;-82
2022/05/07 06:14:53;;;;;;;11.60;10.60;;;12.80;99.90;;;;;;10476240;28;20220;-83
2022/05/07 06:19:56;;;;;;;13.30;12.20;;;12.90;99.90;;;;;;10497513;28;20239;-83
2022/05/07 06:30:30;;;;;;;15.40;13.93;;;13.10;99.90;;;;;;10473204;28;20220;-83
2022/05/07 06:35:34;;;;;;;16.47;14.97;;;13.30;99.90;;;;;;10484153;28;20230;-83
2022/05/07 06:40:43;;;;;;;16.43;15.03;;;13.50;99.90;;;;;;10472491;28;20665;-84
2022/05/07 06:45:47;;;;;;;16.03;14.70;;;13.60;99.90;;;;;;10495132;28;20200;-83
2022/05/07 06:50:50;;;;;;;16.43;14.97;;;13.80;99.90;;;;;;10489246;28;20243;-82
2022/05/07 06:55:56;;;;;;;16.73;15.30;;;13.90;99.90;;;;;;10497257;28;20227;-81
2022/05/07 07:01:01;;;;;;;16.23;14.83;;;14.00;99.90;;;;;;10516976;28;20197;-82
2022/05/07 07:06:03;;;;;;;16.07;14.70;;;14.20;99.90;;;;;;10470851;28;20239;-83
2022/05/07 07:11:08;;;;;;;17.30;15.70;;;14.40;99.90;;;;;;10486775;28;20219;-82
2022/05/07 07:16:12;;;;;;;13.70;12.50;;;14.60;99.90;;;;;;10471079;28;20729;-82
2022/05/07 07:21:14;;;;;;;13.27;12.17;;;14.90;99.90;;;;;;10499643;28;20250;-82
2022/05/07 07:26:16;;;;;;;13.83;12.63;;;15.30;99.90;;;;;;10479747;28;20278;-83
2022/05/07 07:31:20;;;;;;;13.17;12.03;;;15.80;99.90;;;;;;10480629;28;20834;-82
2022/05/07 07:36:22;;;;;;;12.90;11.70;;;16.30;99.90;;;;;;10464254;28;20274;-83
2022/05/07 07:41:25;;;;;;;12.10;11.03;;;16.70;99.90;;;;;;10483505;28;20205;-83
2022/05/07 07:51:53;;;;;;;9.57;8.80;;;17.50;99.90;;;;;;10456208;28;20208;-85
2022/05/07 07:57:10;;;;;;;10.30;9.37;;;17.90;99.90;;;;;;10498901;28;20223;-85
2022/05/07 08:14:22;;;;;;;9.87;8.97;;;19.40;99.90;;;;;;10460811;28;20216;-83
2022/05/07 08:19:27;;;;;;;8.50;7.80;;;19.90;99.90;;;;;;10484833;28;20224;-83
2022/05/07 08:24:34;;;;;;;9.73;8.83;;;20.30;99.90;;;;;;10469043;28;20224;-84
2022/05/07 08:29:36;;;;;;;7.87;7.27;;;20.80;99.90;;;;;;10480952;28;20635;-83
2022/05/07 08:34:39;;;;;;;10.77;9.73;;;21.20;99.90;;;;;;10459644;28;20292;-84
2022/05/07 08:39:43;;;;;;;10.03;9.20;;;21.60;99.60;;;;;;10467461;28;20719;-85
2022/05/07 08:44:45;;;;;;;12.03;10.83;;;21.90;99.60;;;;;;10490892;28;20193;-84
2022/05/07 08:49:47;;;;;;;10.73;9.83;;;22.30;97.70;;;;;;10463855;28;20234;-84
2022/05/07 08:54:51;;;;;;;10.37;9.37;;;22.50;98.00;;;;;;10491094;28;20228;-83
2022/05/07 08:59:53;;;;;;;12.10;11.00;;;22.80;98.00;;;;;;10487958;28;20228;-83
2022/05/07 09:04:57;;;;;;;10.20;9.30;;;22.90;96.30;;;;;;10473231;28;20269;-84
2022/05/07 09:10:00;;;;;;;13.23;11.93;;;23.00;96.10;;;;;;10479019;28;20945;-84
2022/05/07 09:15:04;;;;;;;11.10;10.10;;;22.90;95.50;;;;;;10463881;28;20231;-84
2022/05/07 09:20:13;;;;;;;10.80;9.80;;;22.90;95.00;;;;;;10456394;28;20315;-84
2022/05/07 09:25:21;;;;;;;8.70;8.00;;;23.00;94.60;;;;;;10492467;28;20196;-83
2022/05/07 09:30:25;;;;;;;9.23;8.33;;;23.10;95.10;;;;;;10449514;28;20491;-84
2022/05/07 09:40:50;;;;;;;7.03;6.33;;;23.60;92.10;;;;;;10446861;28;20204;-83
2022/05/07 09:45:53;;;;;;;5.97;5.47;;;23.80;91.60;;;;;;10456547;28;20207;-83
2022/05/07 09:50:58;;;;;;;5.07;4.73;;;24.00;89.50;;;;;;10453909;28;20203;-84
2022/05/07 10:01:34;;;;;;;4.13;3.50;;;24.40;89.30;;;;;;10476692;28;20226;-83
2022/05/07 10:06:49;;;;;;;3.73;3.43;;;24.80;82.30;;;;;;10461421;28;20677;-83
2022/05/07 10:11:56;;;;;;;2.70;2.60;;;25.10;81.40;;;;;;10485961;28;20215;-86
2022/05/07 10:16:59;;;;;;;3.20;3.00;;;25.00;81.60;;;;;;10477075;28;20220;-84
2022/05/07 10:22:01;;;;;;;4.03;3.73;;;24.50;77.50;;;;;;10472224;28;20208;-86
2022/05/07 10:27:05;;;;;;;3.37;3.10;;;23.80;79.50;;;;;;10483175;28;20220;-86
2022/05/07 10:32:10;;;;;;;3.20;3.00;;;23.10;81.40;;;;;;10474255;28;20232;-85
2022/05/07 10:37:13;;;;;;;3.23;3.03;;;22.60;81.20;;;;;;10456219;28;20820;-85
2022/05/07 10:42:18;;;;;;;4.30;3.37;;;22.10;85.20;;;;;;10453074;28;20677;-84
2022/05/07 10:47:20;;;;;;;5.70;4.10;;;21.80;89.10;;;;;;10488933;28;20215;-83
2022/05/07 10:52:30;;;;;;;4.57;4.17;;;21.70;81.90;;;;;;10504334;28;20204;-85
2022/05/07 10:57:40;;;;;;;4.40;4.10;;;21.70;86.10;;;;;;10482181;28;20232;-86
2022/05/07 11:02:43;;;;;;;4.30;4.00;;;21.80;87.20;;;;;;10505074;28;20208;-84
2022/05/07 11:07:45;;;;;;;4.30;3.90;;;21.90;91.20;;;;;;10490483;28;20270;-85
2022/05/07 11:12:49;;;;;;;4.00;3.80;;;21.70;87.70;;;;;;10473879;28;20226;-85
2022/05/07 11:17:51;;;;;;;4.83;4.50;;;21.50;88.50;;;;;;10469896;28;20231;-85
2022/05/07 11:22:59;;;;;;;5.83;3.93;;;21.20;82.30;;;;;;10496882;28;20203;-84
2022/05/07 11:28:03;;;;;;;4.37;4.03;;;20.90;81.20;;;;;;10483965;28;20216;-86
2022/05/07 11:33:06;;;;;;;7.00;4.20;;;20.60;82.70;;;;;;10499973;28;20193;-86
2022/05/07 11:38:13;;;;;;;4.57;3.50;;;20.40;89.40;;;;;;10529590;22;20227;-81
2022/05/07 11:48:41;;;;;;;3.80;3.50;;;20.20;92.00;;;;;;10562323;28;20347;-80
2022/05/07 11:53:43;;;;;;;4.00;3.70;;;20.20;85.50;;;;;;10575287;28;20225;-80
2022/05/07 11:58:49;;;;;;;3.50;3.20;;;20.30;86.50;;;;;;10581933;28;20223;-81
2022/05/07 12:03:52;;;;;;;3.10;2.90;;;20.40;84.70;;;;;;10574912;28;20195;-80
2022/05/07 12:08:54;;;;;;;3.33;3.13;;;20.50;90.60;;;;;;10589129;28;20222;-80
2022/05/07 12:13:58;;;;;;;3.90;3.27;;;20.50;91.60;;;;;;10576236;28;20215;-80
2022/05/07 12:19:00;;;;;;;3.33;3.00;;;20.50;90.30;;;;;;10561942;28;20259;-81
2022/05/07 12:34:42;;;;;;;3.33;3.10;;;20.60;93.20;;;;;;10549592;28;20432;-81
2022/05/07 12:39:45;;;;;;;3.77;3.07;;;20.70;92.60;;;;;;10561765;28;20305;-80
2022/05/07 12:44:48;;;;;;;4.03;3.07;;;20.80;91.30;;;;;;10566080;28;20198;-81
2022/05/07 12:49:51;;;;;;;3.90;3.60;;;20.90;91.60;;;;;;10578688;28;20269;-81
2022/05/07 12:54:53;;;;;;;4.30;2.90;;;21.00;90.00;;;;;;10546738;28;20230;-81
2022/05/07 12:59:57;;;;;;;3.30;3.10;;;21.20;88.50;;;;;;10542818;28;20257;-79
2022/05/07 13:04:59;;;;;;;4.63;3.20;;;21.40;91.60;;;;;;10564766;28;20272;-81
2022/05/07 13:10:01;;;;;;;4.43;3.03;;;21.40;84.70;;;;;;10560865;28;20245;-81
2022/05/07 13:15:05;;;;;;;3.30;3.00;;;21.30;79.50;;;;;;10534624;28;20298;-80
2022/05/07 13:20:09;;;;;;;8.80;6.43;;;21.10;85.00;;;;;;10559577;28;20243;-81
2022/05/07 13:25:11;;;;;;;4.70;3.13;;;21.00;87.20;;;;;;10579800;28;20195;-81
2022/05/07 13:30:15;;;;;;;2.67;2.50;;;20.90;82.90;;;;;;10547742;28;20231;-80
2022/05/07 13:35:20;;;;;;;3.50;2.70;;;20.80;85.40;;;;;;10548796;28;20293;-81
2022/05/07 13:40:22;;;;;;;3.50;3.00;;;20.70;84.80;;;;;;10521729;28;20276;-80
2022/05/07 13:45:26;;;;;;;3.73;3.10;;;20.60;80.80;;;;;;10551080;28;20747;-81
2022/05/07 13:50:29;;;;;;;6.73;3.00;;;20.60;81.70;;;;;;10507555;28;21054;-80
2022/05/07 13:55:31;;;;;;;2.77;2.57;;;20.70;85.60;;;;;;10538970;28;20224;-82
2022/05/07 14:00:35;;;;;;;4.07;3.20;;;20.80;90.10;;;;;;10536957;28;20227;-80
2022/05/07 14:05:37;;;;;;;3.30;3.07;;;20.90;82.30;;;;;;10537525;28;20192;-81
2022/05/07 14:10:39;;;;;;;3.13;2.93;;;21.10;88.40;;;;;;10552771;28;20318;-80
2022/05/07 14:15:43;;;;;;;2.97;2.80;;;21.30;86.80;;;;;;10555432;28;20246;-81
2022/05/07 14:20:47;;;;;;;3.30;3.10;;;21.40;84.60;;;;;;10554045;28;20214;-80
2022/05/07 14:25:49;;;;;;;4.40;3.03;;;21.60;81.80;;;;;;10580170;28;20389;-81
2022/05/07 14:30:53;;;;;;;3.57;3.27;;;21.70;79.00;;;;;;10546227;28;20211;-80
2022/05/07 14:35:55;;;;;;;3.90;3.53;;;21.70;78.70;;;;;;10576322;28;20251;-81
2022/05/07 14:40:57;;;;;;;3.80;3.50;;;21.70;81.20;;;;;;10544697;28;20263;-80
2022/05/07 14:46:01;;;;;;;3.20;3.00;;;21.70;84.50;;;;;;10576046;28;20203;-81
2022/05/07 14:51:04;;;;;;;3.67;3.37;;;21.70;82.80;;;;;;10554036;28;20199;-80
2022/05/07 14:56:06;;;;;;;3.50;3.30;;;21.60;85.50;;;;;;10570320;28;20600;-81
2022/05/07 15:01:10;;;;;;;5.13;4.17;;;21.50;86.70;;;;;;10575370;28;20619;-81
2022/05/07 15:06:12;;;;;;;3.67;3.47;;;21.50;81.40;;;;;;10551457;28;20724;-81
2022/05/07 15:11:16;;;;;;;3.30;3.10;;;21.50;83.50;;;;;;10542607;28;20624;-81
2022/05/07 15:16:22;;;;;;;3.90;3.60;;;21.60;90.50;;;;;;10539772;28;20273;-81
2022/05/07 15:21:24;;;;;;;4.47;4.07;;;22.00;87.50;;;;;;10566469;28;20200;-81
2022/05/07 15:26:26;;;;;;;4.40;4.10;;;22.00;85.20;;;;;;10559555;28;20207;-81
2022/05/07 15:31:30;;;;;;;4.47;4.07;;;21.90;83.20;;;;;;10577727;28;20228;-81
2022/05/07 15:41:50;;;;;;;5.20;4.90;;;21.60;79.70;;;;;;10590317;28;20689;-81
2022/05/07 15:46:54;;;;;;;4.50;4.10;;;21.50;88.20;;;;;;10561140;28;20215;-82
2022/05/07 15:51:56;;;;;;;4.60;4.27;;;21.30;87.10;;;;;;10568537;28;20279;-80
2022/05/07 15:56:58;;;;;;;4.53;4.23;;;21.10;90.90;;;;;;10590969;28;20309;-80
2022/05/07 16:02:02;;;;;;;4.30;4.00;;;20.90;89.50;;;;;;10573307;28;20203;-81
2022/05/07 16:07:06;;;;;;;5.13;4.63;;;20.70;88.90;;;;;;10572302;28;20220;-81
2022/05/07 16:12:09;;;;;;;4.97;4.20;;;20.60;85.20;;;;;;10580544;28;20196;-81
2022/05/07 16:17:17;;;;;;;5.40;5.00;;;20.60;84.60;;;;;;10585083;28;20243;-81
2022/05/07 16:27:39;;;;;;;4.90;4.60;;;20.50;85.50;;;;;;10587207;28;20203;-80
2022/05/07 16:32:42;;;;;;;5.70;5.20;;;20.50;88.00;;;;;;10561170;28;20288;-81
2022/05/07 16:37:44;;;;;;;5.00;4.60;;;20.50;85.70;;;;;;10566369;28;20230;-81
2022/05/07 16:42:47;;;;;;;5.70;4.93;;;20.60;87.50;;;;;;10551494;28;20230;-80
2022/05/07 16:47:50;;;;;;;5.00;4.60;;;20.60;90.10;;;;;;10543526;28;20235;-80
2022/05/07 16:52:52;;;;;;;4.70;4.40;;;20.60;83.80;;;;;;10576028;28;20200;-81
2022/05/07 16:57:56;;;;;;;5.50;5.00;;;20.70;84.90;;;;;;10577113;28;20302;-80
2022/05/07 17:03:02;;;;;;;6.77;4.47;;;20.80;90.20;;;;;;10578895;28;20188;-81
2022/05/07 17:08:04;;;;;;;5.00;4.70;;;20.80;84.80;;;;;;10562403;28;20284;-81
2022/05/07 17:13:06;;;;;;;4.90;4.50;;;20.80;90.00;;;;;;10582137;28;20223;-80
2022/05/07 17:18:10;;;;;;;6.03;5.63;;;20.70;87.70;;;;;;10585988;28;20226;-80
2022/05/07 17:23:12;;;;;;;5.27;4.87;;;20.70;79.80;;;;;;10584598;28;20228;-79
2022/05/07 17:28:15;;;;;;;5.33;4.90;;;20.60;86.20;;;;;;10588099;28;20238;-81
2022/05/07 17:33:19;;;;;;;5.30;4.80;;;20.50;87.00;;;;;;10588270;28;20210;-80
2022/05/07 17:38:21;;;;;;;5.60;5.20;;;20.50;91.30;;;;;;10585262;28;20227;-80
2022/05/07 17:43:23;;;;;;;5.03;4.67;;;20.30;90.60;;;;;;10595549;28;20234;-80
2022/05/07 17:53:47;;;;;;;6.23;5.67;;;20.00;94.60;;;;;;10571829;28;20196;-79
2022/05/07 17:58:50;;;;;;;6.00;5.60;;;19.80;95.80;;;;;;10596382;28;20729;-80
2022/05/07 18:03:53;;;;;;;5.63;5.23;;;19.60;95.80;;;;;;10579840;28;20230;-80
2022/05/07 18:08:55;;;;;;;5.30;5.00;;;19.50;96.30;;;;;;10569529;28;20235;-80
2022/05/07 18:13:58;;;;;;;6.40;5.90;;;19.30;97.20;;;;;;10583648;28;20199;-79
2022/05/07 18:19:01;;;;;;;6.03;5.53;;;19.20;97.50;;;;;;10588397;28;20254;-80
2022/05/07 18:24:04;;;;;;;6.50;5.90;;;19.10;93.60;;;;;;10583629;28;20210;-81
2022/05/07 18:29:10;;;;;;;4.90;4.60;;;19.00;95.60;;;;;;10584350;28;20279;-80
2022/05/07 18:34:14;;;;;;;6.27;5.63;;;19.00;93.90;;;;;;10583792;28;20210;-80
2022/05/07 18:44:35;;;;;;;5.93;5.47;;;18.80;93.30;;;;;;10575339;28;20191;-78
2022/05/07 18:49:39;;;;;;;7.00;5.53;;;18.80;94.70;;;;;;10580131;28;20294;-80
2022/05/07 18:54:41;;;;;;;6.17;5.67;;;18.70;94.10;;;;;;10578697;28;20202;-80
2022/05/07 18:59:45;;;;;;;6.70;6.03;;;18.60;94.50;;;;;;10575550;28;20223;-80
2022/05/07 19:04:48;;;;;;;6.17;5.70;;;18.50;95.50;;;;;;10558023;28;20256;-80
2022/05/07 19:09:51;;;;;;;6.80;6.20;;;18.30;95.10;;;;;;10576435;28;20218;-80
2022/05/07 19:14:53;;;;;;;6.20;5.70;;;18.20;95.30;;;;;;10581745;28;20312;-78
2022/05/07 19:19:57;;;;;;;7.07;6.57;;;18.10;96.20;;;;;;10559345;28;20224;-80
2022/05/07 19:24:59;;;;;;;7.23;6.70;;;18.00;95.90;;;;;;10578746;28;20663;-80
2022/05/07 19:30:01;;;;;;;6.83;6.23;;;17.80;95.60;;;;;;10584134;28;20416;-80
2022/05/07 19:35:06;;;;;;;6.43;5.90;;;17.70;96.20;;;;;;10572267;28;20276;-78
2022/05/07 19:40:10;;;;;;;7.53;6.67;;;17.60;96.40;;;;;;10579502;28;20227;-80
2022/05/07 19:45:12;;;;;;;7.27;6.67;;;17.50;96.60;;;;;;10558389;28;20203;-80
2022/05/07 19:50:15;;;;;;;5.70;5.17;;;17.40;96.70;;;;;;10585692;28;20302;-79
2022/05/07 19:55:19;;;;;;;6.67;6.20;;;17.30;95.90;;;;;;10585895;28;20242;-80
2022/05/07 20:00:22;;;;;;;7.10;6.60;;;17.20;97.40;;;;;;10537189;28;20247;-78
2022/05/07 20:05:26;;;;;;;8.00;7.40;;;17.20;97.60;;;;;;10544982;28;20290;-79
2022/05/07 20:10:28;;;;;;;7.30;6.80;;;17.10;97.80;;;;;;10554417;28;20230;-79
2022/05/07 20:15:30;;;;;;;6.53;6.03;;;17.00;98.00;;;;;;10531432;28;20218;-78
2022/05/07 20:25:53;;;;;;;6.40;5.80;;;17.00;99.90;;;;;;10552334;28;20743;-80
2022/05/07 20:30:55;;;;;;;7.37;6.87;;;16.90;98.80;;;;;;10587159;28;20232;-79
2022/05/07 20:35:59;;;;;;;20.47;18.37;;;16.90;98.90;;;;;;10578647;28;20203;-80
2022/05/07 20:41:01;;;;;;;18.17;16.37;;;16.80;97.90;;;;;;10576393;28;20253;-78
2022/05/07 20:51:39;;;;;;;10.23;8.70;;;16.60;97.80;;;;;;10380339;28;20207;-79
2022/05/07 20:56:42;;;;;;;8.60;7.73;;;16.50;97.50;;;;;;10518411;28;20478;-80
2022/05/07 21:01:47;;;;;;;9.20;8.40;;;16.40;98.00;;;;;;10589302;28;20202;-79
2022/05/07 21:06:53;;;;;;;9.37;8.60;;;16.20;98.50;;;;;;10524190;28;20219;-80
2022/05/07 21:11:55;;;;;;;9.43;8.73;;;16.20;99.30;;;;;;10548060;28;20199;-79
2022/05/07 21:16:57;;;;;;;8.93;8.23;;;16.10;99.80;;;;;;10567182;28;20520;-80
2022/05/07 21:22:01;;;;;;;10.17;9.13;;;16.10;99.90;;;;;;10552973;28;20196;-80
2022/05/07 21:27:05;;;;;;;9.70;9.00;;;16.10;99.90;;;;;;10561720;28;20218;-79
2022/05/07 21:32:08;;;;;;;8.93;8.33;;;16.00;99.90;;;;;;10577506;28;20289;-80
2022/05/07 21:37:12;;;;;;;11.87;10.87;;;16.00;99.90;;;;;;10575197;28;20227;-80
2022/05/07 21:42:14;;;;;;;10.13;9.20;;;15.90;99.90;;;;;;10574904;28;20261;-80
2022/05/07 21:47:16;;;;;;;10.20;9.50;;;15.90;99.90;;;;;;10551096;28;20302;-80
2022/05/07 21:52:24;;;;;;;10.33;9.30;;;15.80;99.90;;;;;;10534918;28;20325;-80
2022/05/07 21:57:26;;;;;;;11.20;10.10;;;15.70;99.90;;;;;;10572610;28;20266;-80
2022/05/07 22:02:46;;;;;;;11.77;10.77;;;15.70;99.90;;;;;;10574583;28;20711;-80
2022/05/07 22:07:50;;;;;;;13.00;11.70;;;15.60;99.90;;;;;;10555016;28;20574;-80
2022/05/07 22:12:52;;;;;;;12.93;11.77;;;15.50;99.90;;;;;;10534284;28;20211;-78
2022/05/07 22:17:54;;;;;;;11.60;10.70;;;15.50;99.90;;;;;;10560764;28;20365;-79
2022/05/07 22:23:00;;;;;;;11.27;10.37;;;15.50;99.90;;;;;;10553703;28;20196;-79
2022/05/07 22:28:03;;;;;;;12.10;11.07;;;15.40;99.90;;;;;;10547971;28;20249;-79
2022/05/07 22:33:05;;;;;;;12.23;11.13;;;15.40;99.90;;;;;;10566591;28;20214;-80
2022/05/07 22:38:08;;;;;;;13.40;12.27;;;15.30;99.90;;;;;;10568695;28;20306;-80
2022/05/07 22:43:13;;;;;;;13.27;12.20;;;15.20;99.90;;;;;;10557399;28;20248;-78
2022/05/07 22:48:15;;;;;;;12.53;11.50;;;15.20;99.90;;;;;;10552772;28;20716;-79
2022/05/07 22:53:19;;;;;;;12.70;11.70;;;15.10;99.90;;;;;;10548975;28;20203;-78
2022/05/07 22:58:23;;;;;;;13.00;11.90;;;15.10;99.90;;;;;;10568059;28;20710;-81
2022/05/07 23:03:25;;;;;;;12.80;11.70;;;15.10;99.90;;;;;;10541168;28;20659;-79
2022/05/07 23:08:29;;;;;;;12.80;11.60;;;15.10;99.90;;;;;;10534729;28;20701;-78
2022/05/07 23:13:31;;;;;;;11.60;10.60;;;15.10;99.90;;;;;;10549471;28;20195;-79
2022/05/07 23:18:34;;;;;;;14.20;13.00;;;15.00;99.90;;;;;;10545618;28;20675;-80
2022/05/07 23:23:37;;;;;;;11.93;11.03;;;15.00;99.90;;;;;;10546232;28;20207;-78
2022/05/07 23:28:39;;;;;;;12.40;11.50;;;14.90;99.90;;;;;;10548824;28;20208;-79
2022/05/07 23:33:42;;;;;;;12.90;11.70;;;14.90;99.90;;;;;;10533582;28;20544;-80
2022/05/07 23:38:45;;;;;;;13.30;12.10;;;14.90;99.90;;;;;;10579205;28;20291;-80
2022/05/07 23:43:47;;;;;;;12.20;11.30;;;14.80;99.90;;;;;;10592294;28;20198;-78
2022/05/07 23:48:51;;;;;;;12.80;11.70;;;14.80;99.90;;;;;;10582271;28;20654;-78
2022/05/07 23:53:54;;;;;;;12.67;11.70;;;14.80;99.90;;;;;;10564938;28;20296;-79
2022/05/07 23:58:57;;;;;;;12.67;11.77;;;14.80;99.90;;;;;;10548850;28;20351;-79
